Richfield, Utah
Current Conditions -  °F | °C
As of 7:55 PM on Monday 22 Dec 2014 (Local Time) from KDTA Reporting Station
Clear Clear  
Wind Chill: 25°   Ceiling: Unl
Heat Index: 35°   Visibility: 10mi
Dew Point: 23°   Wind: 18mph
Humidity: 60%   Direction: 20°NNE
Pressure: 30.12"   Gusts: 23mph
Location:  38.77°N, 112.08°W
Report Text: KDTA 230255Z AUTO 02016G20KT 10SM CLR 02/M05 A3012 RMK AO1 T00191052
Loading
Personal Weather Stations






























Interactive Weather Map New forecast layout! Learn more

10-Day Weather Forecast

Advertisements
Track Severe Weather on mobile